Time;durP1;ratioP1;P1;durP2;ratioP2;P2;SDS_P1;SDS_P2;PMS_P1;PMS_P2;Temp;Humidity;BMP_temperature;BMP_pressure;BME280_temperature;BME280_humidity;BME280_pressure;Samples;Min_cycle;Max_cycle;Signal;HPM_P1;HPM_P2
2021/01/12 00:01:44;;;;;;;63.05;27.67;;;;;;;-0.79;77.96;100721.77;1787377;80;21119;-79
2021/01/12 00:04:12;;;;;;;57.93;26.80;;;;;;;-0.80;77.74;100723.91;1785914;79;21206;-80
2021/01/12 00:06:41;;;;;;;55.38;27.70;;;;;;;-0.80;78.16;100727.80;1785236;79;21127;-79
2021/01/12 00:09:09;;;;;;;60.80;29.20;;;;;;;-0.79;78.39;100729.52;1784749;79;21187;-79
2021/01/12 00:11:37;;;;;;;58.85;28.77;;;;;;;-0.77;78.61;100727.84;1782885;80;21183;-76
2021/01/12 00:14:04;;;;;;;52.35;26.90;;;;;;;-0.76;78.51;100733.88;1782218;79;21111;-77
2021/01/12 00:16:33;;;;;;;49.10;25.32;;;;;;;-0.83;78.12;100727.72;1782415;80;21375;-75
2021/01/12 00:19:05;;;;;;;56.90;25.15;;;;;;;-0.85;78.30;100734.17;1782197;80;21151;-77
2021/01/12 00:21:32;;;;;;;66.60;29.80;;;;;;;-0.84;78.74;100733.74;1782581;80;21132;-76
2021/01/12 00:24:01;;;;;;;58.20;26.73;;;;;;;-0.86;78.77;100731.12;1782250;80;21155;-76
2021/01/12 00:26:29;;;;;;;58.87;27.10;;;;;;;-0.85;78.50;100734.60;1782607;80;21149;-79
2021/01/12 00:28:56;;;;;;;66.47;30.40;;;;;;;-0.86;78.51;100732.84;1784553;80;22776;-82
2021/01/12 00:31:24;;;;;;;66.30;29.98;;;;;;;-0.87;78.50;100734.98;1786040;80;21148;-81
2021/01/12 00:33:52;;;;;;;72.95;34.70;;;;;;;-0.90;78.63;100737.10;1785918;79;21071;-81
2021/01/12 00:36:19;;;;;;;106.67;49.55;;;;;;;-0.94;78.67;100741.75;1785274;80;21850;-79
2021/01/12 00:38:47;;;;;;;78.17;36.58;;;;;;;-0.95;78.96;100739.13;1784068;80;21163;-80
2021/01/12 00:41:15;;;;;;;79.92;35.00;;;;;;;-0.96;78.99;100737.40;1784144;80;21458;-79
2021/01/12 00:43:42;;;;;;;80.12;37.03;;;;;;;-0.98;79.25;100735.20;1785117;80;21210;-81
2021/01/12 00:46:10;;;;;;;102.92;45.12;;;;;;;-0.98;78.91;100730.03;1783517;79;21167;-81
2021/01/12 00:48:38;;;;;;;111.50;45.73;;;;;;;-1.01;78.49;100728.66;1768670;81;21113;-81
2021/01/12 00:51:06;;;;;;;115.10;46.80;;;;;;;-1.06;78.53;100730.76;1768713;81;21564;-79
2021/01/12 00:53:35;;;;;;;127.50;52.70;;;;;;;-1.04;78.63;100728.61;1770773;81;21374;-81
2021/01/12 00:56:14;;;;;;;106.78;46.00;;;;;;;-1.01;78.58;100732.14;1783809;80;21151;-81
2021/01/12 00:58:44;;;;;;;86.63;40.17;;;;;;;-0.99;78.70;100726.98;1788984;77;21100;-82
2021/01/12 01:01:11;;;;;;;86.25;37.53;;;;;;;-0.96;78.22;100725.33;1788739;79;21111;-80
2021/01/12 01:03:42;;;;;;;76.80;33.05;;;;;;;-0.95;78.01;100721.03;1788844;78;21008;-81
2021/01/12 01:06:11;;;;;;;74.47;31.68;;;;;;;-0.92;78.49;100724.95;1735289;81;21331;-84
2021/01/12 01:08:38;;;;;;;72.20;31.37;;;;;;;-0.90;78.53;100729.34;1789097;77;21097;-84
2021/01/12 01:11:06;;;;;;;65.80;29.20;;;;;;;-0.92;78.52;100722.38;1789096;77;21040;-83
2021/01/12 01:13:38;;;;;;;63.13;29.02;;;;;;;-0.95;78.46;100717.15;1789147;80;21123;-83
2021/01/12 01:16:06;;;;;;;68.47;31.35;;;;;;;-1.00;78.41;100719.65;1787280;80;21091;-79
2021/01/12 01:18:36;;;;;;;73.10;31.55;;;;;;;-1.02;78.30;100724.34;1785920;80;21646;-80
2021/01/12 01:21:06;;;;;;;76.65;32.28;;;;;;;-1.06;78.07;100715.24;1785434;80;21154;-81
2021/01/12 01:23:34;;;;;;;68.02;30.65;;;;;;;-1.09;78.11;100719.04;1785736;80;21163;-80
2021/01/12 01:26:04;;;;;;;73.67;32.28;;;;;;;-1.11;78.22;100714.25;1788815;80;21119;-83
2021/01/12 01:28:32;;;;;;;84.62;35.58;;;;;;;-1.13;78.32;100715.97;1788822;77;21047;-86
2021/01/12 01:31:00;;;;;;;93.58;39.95;;;;;;;-1.14;78.44;100711.63;1789203;77;21195;-86
2021/01/12 01:33:31;;;;;;;79.37;33.38;;;;;;;-1.12;78.83;100716.41;1763606;77;21131;-86
2021/01/12 01:36:31;;;;;;;71.12;31.70;;;;;;;-1.11;78.67;100716.84;1736993;77;73992;31
2021/01/12 01:42:09;;;;;;;60.58;26.00;;;;;;;-1.05;79.19;100718.70;1835585;75;74820;-87
2021/01/12 01:47:53;;;;;;;62.35;28.40;;;;;;;-1.03;79.56;100713.56;1770735;78;20988;-88
2021/01/12 01:50:23;;;;;;;64.35;28.23;;;;;;;-1.03;79.83;100713.56;1781758;77;21180;-88
2021/01/12 01:52:52;;;;;;;;;;;;;;;-1.02;79.98;100716.59;1784695;79;21409;-87
2021/01/12 01:58:51;;;;;;;91.25;40.03;;;;;;;-1.03;79.88;100714.43;1806871;75;74990;-83
2021/01/12 02:01:19;;;;;;;79.80;38.90;;;;;;;-1.01;79.85;100712.75;1807672;75;75018;-84
2021/01/12 02:04:09;;;;;;;76.80;33.50;;;;;;;-0.99;79.39;100703.70;1805316;78;21125;-86
2021/01/12 02:06:40;;;;;;;80.17;33.80;;;;;;;-0.95;79.66;100701.64;1805385;79;21010;-87
2021/01/12 02:09:39;;;;;;;87.35;38.20;;;;;;;-0.91;79.67;100703.45;1781867;78;21190;-86
2021/01/12 02:12:15;;;;;;;79.65;33.85;;;;;;;-0.91;79.58;100700.86;1792903;78;26344;-88
2021/01/12 02:15:05;;;;;;;84.55;34.05;;;;;;;-0.90;79.85;100697.02;1789912;77;73997;-87
2021/01/12 02:17:34;;;;;;;81.22;35.35;;;;;;;-0.89;79.90;100696.59;1874710;76;21062;-89
2021/01/12 02:23:20;;;;;;;75.42;33.38;;;;;;;-0.88;79.81;100695.73;1785582;79;21139;-90
2021/01/12 02:25:48;;;;;;;80.38;36.00;;;;;;;-0.89;79.71;100692.72;1787113;76;76085;-92
2021/01/12 02:28:57;;;;;;;81.57;37.73;;;;;;;-0.90;79.13;100694.83;1776122;78;21033;-91
2021/01/12 02:32:25;;;;;;;77.25;35.68;;;;;;;-0.94;78.21;100693.92;1791496;76;75847;-88
2021/01/12 02:34:54;;;;;;;68.37;30.30;;;;;;;-0.96;78.17;100692.16;1810835;76;74048;-81
2021/01/12 02:37:24;;;;;;;62.98;27.37;;;;;;;-0.99;78.57;100692.08;1778858;80;21087;-82
2021/01/12 02:39:59;;;;;;;68.62;30.25;;;;;;;-1.03;78.01;100696.33;1755366;80;21283;-81
2021/01/12 02:42:30;;;;;;;67.15;30.27;;;;;;;-1.09;77.86;100697.07;1774617;78;21119;-83
2021/01/12 02:44:58;;;;;;;59.05;27.98;;;;;;;-1.15;77.91;100681.46;1824546;78;21091;-83
2021/01/12 02:47:25;;;;;;;69.55;31.00;;;;;;;-1.15;78.21;100685.34;1824295;76;21174;-83
2021/01/12 02:49:53;;;;;;;71.45;32.45;;;;;;;-1.15;78.25;100684.05;1824055;78;21052;-80
2021/01/12 02:52:20;;;;;;;70.95;32.73;;;;;;;-1.16;78.47;100680.99;1823825;78;21167;-79
2021/01/12 02:54:48;;;;;;;82.55;35.80;;;;;;;-1.15;78.45;100681.46;1823709;78;21092;-81
2021/01/12 02:57:15;;;;;;;77.75;32.98;;;;;;;-1.15;78.78;100675.00;1823850;78;21181;-80
2021/01/12 02:59:47;;;;;;;76.87;34.75;;;;;;;-1.16;78.42;100671.95;1822902;78;21158;-76
2021/01/12 03:02:14;;;;;;;79.55;34.00;;;;;;;-1.16;78.01;100673.66;1818764;78;21613;-77
2021/01/12 03:04:43;;;;;;;84.20;34.45;;;;;;;-1.17;78.25;100664.19;1818789;78;21359;-76
2021/01/12 03:07:10;;;;;;;74.27;32.42;;;;;;;-1.17;78.00;100666.77;1819085;78;21163;-81
2021/01/12 03:09:39;;;;;;;64.67;29.07;;;;;;;-1.16;78.06;100666.78;1802702;78;21152;-79
2021/01/12 03:12:09;;;;;;;65.65;30.72;;;;;;;-1.17;77.86;100671.51;1792854;79;21160;-79
2021/01/12 03:14:37;;;;;;;62.40;27.50;;;;;;;-1.17;77.51;100663.76;1791734;80;21144;-81
2021/01/12 03:17:06;;;;;;;73.10;31.37;;;;;;;-1.17;77.28;100667.63;1791733;79;21362;-78
2021/01/12 03:19:35;;;;;;;76.80;32.08;;;;;;;-1.16;77.76;100666.78;1791455;79;21870;-78
2021/01/12 03:22:06;;;;;;;73.20;30.92;;;;;;;-1.15;78.33;100656.91;1790594;80;21204;-78
2021/01/12 03:24:37;;;;;;;70.32;31.65;;;;;;;-1.13;78.54;100659.11;1791092;80;21631;-78
2021/01/12 03:27:06;;;;;;;72.08;33.00;;;;;;;-1.13;77.89;100656.52;1790895;79;21128;-77
2021/01/12 03:29:34;;;;;;;68.97;29.07;;;;;;;-1.10;78.12;100659.15;1791021;80;21193;-77
2021/01/12 03:32:02;;;;;;;70.00;31.90;;;;;;;-1.09;77.55;100662.17;1790895;79;21655;-77
2021/01/12 03:34:32;;;;;;;70.83;31.07;;;;;;;-1.09;78.06;100647.95;1795076;78;21168;-80
2021/01/12 03:37:00;;;;;;;66.33;29.15;;;;;;;-1.04;78.15;100652.34;1821045;78;21119;-79
2021/01/12 03:39:28;;;;;;;60.35;29.02;;;;;;;-1.00;77.43;100648.98;1820616;78;21162;-79
2021/01/12 03:41:56;;;;;;;61.77;30.48;;;;;;;-0.99;77.79;100649.41;1821936;78;22377;-79
2021/01/12 03:44:25;;;;;;;63.02;30.05;;;;;;;-0.96;77.74;100636.56;1821564;78;21186;-78
2021/01/12 03:46:52;;;;;;;62.58;28.30;;;;;;;-0.97;76.98;100630.92;1821308;78;21590;-80
2021/01/12 03:49:22;;;;;;;58.55;27.75;;;;;;;-0.96;76.82;100635.27;1821119;78;21148;-79
2021/01/12 03:51:50;;;;;;;62.93;28.98;;;;;;;-0.97;76.73;100627.05;1820324;78;21178;-79
2021/01/12 03:54:18;;;;;;;46.92;23.10;;;;;;;-1.00;76.06;100623.98;1820285;78;21987;-79
2021/01/12 03:56:46;;;;;;;52.33;23.52;;;;;;;-1.01;75.34;100625.24;1820390;78;21167;-80
2021/01/12 03:59:13;;;;;;;56.68;25.45;;;;;;;-1.03;74.66;100625.67;1821076;78;21609;-82
2021/01/12 04:01:43;;;;;;;57.58;25.02;;;;;;;-1.02;74.57;100620.94;1821518;78;21170;-82
2021/01/12 04:04:11;;;;;;;48.60;21.90;;;;;;;-1.03;73.35;100625.67;1822508;78;21182;-82
2021/01/12 04:06:40;;;;;;;44.15;19.30;;;;;;;-1.05;72.01;100619.17;1822328;78;23595;-80
2021/01/12 04:09:07;;;;;;;39.95;19.23;;;;;;;-1.08;69.73;100612.23;1767399;78;21136;-81
2021/01/12 04:11:36;;;;;;;50.48;22.13;;;;;;;-1.09;69.68;100609.17;1821019;78;21194;-79
2021/01/12 04:14:06;;;;;;;44.40;20.90;;;;;;;-1.07;70.64;100615.25;1828452;78;21170;-79
2021/01/12 04:16:34;;;;;;;42.50;19.92;;;;;;;-1.04;70.85;100613.56;1787371;78;21179;-77
2021/01/12 04:19:03;;;;;;;37.05;16.10;;;;;;;-1.02;70.99;100611.45;1830854;78;22222;-80
2021/01/12 04:21:33;;;;;;;38.15;17.75;;;;;;;-1.02;70.11;100604.13;1821513;78;21123;-82
2021/01/12 04:24:03;;;;;;;34.48;17.00;;;;;;;-0.97;69.88;100607.66;1832694;78;21079;-81
2021/01/12 04:26:31;;;;;;;33.58;16.37;;;;;;;-0.99;68.08;100609.34;1824345;78;21087;-81
2021/01/12 04:29:04;;;;;;;30.00;16.05;;;;;;;-1.01;68.43;100601.58;1833079;78;21024;-79
2021/01/12 04:31:34;;;;;;;35.00;18.67;;;;;;;-0.98;68.83;100598.17;1821409;78;21374;-81
2021/01/12 04:34:03;;;;;;;39.00;18.70;;;;;;;-0.96;69.53;100606.83;1828288;78;21134;-79
2021/01/12 04:36:31;;;;;;;37.83;18.45;;;;;;;-0.95;70.40;100599.08;1828126;78;21142;-79
2021/01/12 04:39:00;;;;;;;37.45;19.02;;;;;;;-0.91;69.97;100605.19;1808064;78;21118;-76
2021/01/12 04:41:30;;;;;;;39.13;18.32;;;;;;;-0.90;69.35;100596.58;1757020;79;21148;-77
2021/01/12 04:43:57;;;;;;;37.35;15.93;;;;;;;-0.88;71.06;100594.89;1773036;79;21222;-76
2021/01/12 04:46:25;;;;;;;43.80;21.00;;;;;;;-0.86;69.23;100600.95;1777013;79;21207;-76
2021/01/12 04:48:52;;;;;;;39.18;18.60;;;;;;;-0.85;69.42;100596.25;1803178;79;21138;-77
2021/01/12 04:51:24;;;;;;;40.85;20.25;;;;;;;-0.87;68.83;100596.65;1771476;81;21191;-77
2021/01/12 04:53:52;;;;;;;41.80;17.65;;;;;;;-0.88;69.14;100592.30;1771831;81;21144;-77
2021/01/12 04:56:21;;;;;;;32.95;17.98;;;;;;;-0.91;68.38;100587.95;1772803;79;21167;-78
2021/01/12 04:58:52;;;;;;;31.10;16.85;;;;;;;-0.90;68.96;100591.00;1803439;79;21654;-77
2021/01/12 05:01:21;;;;;;;36.85;18.40;;;;;;;-0.92;68.49;100587.91;1803459;79;21175;-77
2021/01/12 05:03:53;;;;;;;33.38;16.93;;;;;;;-0.92;69.33;100587.91;1805142;79;21107;-82
2021/01/12 05:06:24;;;;;;;40.10;19.95;;;;;;;-0.92;69.66;100586.63;1809838;76;21089;-83
2021/01/12 05:08:56;;;;;;;44.95;20.25;;;;;;;-0.95;68.83;100583.56;1811820;79;21373;-82
2021/01/12 05:11:36;;;;;;;36.08;18.00;;;;;;;-1.01;68.68;100586.07;1809429;77;21165;-82
2021/01/12 05:14:09;;;;;;;41.40;19.62;;;;;;;-1.04;69.46;100586.42;1811184;79;21530;-79
2021/01/12 05:16:49;;;;;;;38.33;19.42;;;;;;;-1.09;69.07;100582.03;1839936;77;21109;-79
2021/01/12 05:19:23;;;;;;;45.98;21.05;;;;;;;-1.11;69.05;100578.98;1838480;78;21093;-80
2021/01/12 05:21:51;;;;;;;43.35;21.27;;;;;;;-1.13;68.58;100576.39;1839262;78;21189;-80
2021/01/12 05:24:21;;;;;;;42.62;19.70;;;;;;;-1.14;68.82;100579.80;1840025;78;21186;-81
2021/01/12 05:26:49;;;;;;;38.90;19.55;;;;;;;-1.17;68.27;100575.02;1839980;78;21092;-80
2021/01/12 05:29:16;;;;;;;44.83;20.62;;;;;;;-1.19;68.70;100580.15;1811391;78;21101;-78
2021/01/12 05:31:46;;;;;;;44.23;20.70;;;;;;;-1.17;69.25;100582.34;1842614;78;22229;-81
2021/01/12 05:34:17;;;;;;;38.38;17.80;;;;;;;-1.18;68.84;100584.89;1842059;78;21195;-82
2021/01/12 05:39:40;;;;;;;48.93;23.03;;;;;;;-1.21;69.41;100577.95;1850791;76;21964;-79
2021/01/12 05:42:10;;;;;;;42.38;20.02;;;;;;;-1.26;70.53;100584.77;1797571;78;21122;-82
2021/01/12 05:44:39;;;;;;;52.48;24.20;;;;;;;-1.26;70.63;100575.72;1787661;80;21491;-77
2021/01/12 05:47:08;;;;;;;44.00;20.82;;;;;;;-1.26;70.82;100582.18;1786866;80;21122;-82
2021/01/12 05:49:36;;;;;;;42.85;19.52;;;;;;;-1.25;71.95;100578.73;1787299;80;21185;-80
2021/01/12 05:52:05;;;;;;;47.30;20.70;;;;;;;-1.23;71.73;100583.52;1732798;80;21593;-81
2021/01/12 05:54:36;;;;;;;47.60;22.90;;;;;;;-1.25;71.96;100592.95;1787334;80;21139;-81
2021/01/12 05:57:06;;;;;;;47.48;21.60;;;;;;;-1.28;72.12;100589.03;1787529;80;21396;-80
2021/01/12 05:59:37;;;;;;;40.58;20.72;;;;;;;-1.30;72.38;100592.86;1787938;80;21095;-80
2021/01/12 06:02:09;;;;;;;41.85;19.40;;;;;;;-1.32;72.68;100596.27;1787673;80;21186;-77
2021/01/12 06:04:37;;;;;;;42.20;17.50;;;;;;;-1.32;73.50;100592.39;1794330;78;21182;-73
2021/01/12 06:07:05;;;;;;;42.53;21.30;;;;;;;-1.35;73.57;100602.68;1740601;80;21229;-73
2021/01/12 06:09:34;;;;;;;41.88;19.77;;;;;;;-1.39;74.41;100599.16;1742977;81;21437;-73
2021/01/12 06:12:03;;;;;;;41.18;19.27;;;;;;;-1.39;74.72;100599.16;1732017;81;21169;-73
2021/01/12 06:14:30;;;;;;;42.03;20.97;;;;;;;-1.36;74.72;100608.67;1763988;81;21145;-74
2021/01/12 06:17:00;;;;;;;43.00;20.40;;;;;;;-1.35;74.46;100610.43;1763936;81;21582;-74
2021/01/12 06:19:41;;;;;;;42.73;20.27;;;;;;;-1.31;74.17;100599.31;1821816;76;22793;-72
2021/01/12 06:22:16;;;;;;;45.52;19.77;;;;;;;-1.35;74.52;100605.27;1742773;81;21839;-73
2021/01/12 06:24:53;;;;;;;37.03;19.50;;;;;;;-1.36;74.50;100602.21;1731312;82;21344;-73
2021/01/12 06:27:28;;;;;;;51.02;22.62;;;;;;;-1.38;74.57;100600.02;1725404;81;21178;-73
2021/01/12 06:30:05;;;;;;;41.08;19.73;;;;;;;-1.39;74.57;100604.32;1771593;80;21581;-73
2021/01/12 06:32:34;;;;;;;44.77;20.77;;;;;;;-1.38;74.75;100605.19;1783352;80;22193;-72
2021/01/12 06:35:09;;;;;;;39.20;19.77;;;;;;;-1.39;74.53;100609.91;1761721;80;21129;-73
2021/01/12 06:37:41;;;;;;;41.70;18.62;;;;;;;-1.42;73.94;100600.83;1765119;80;21672;-75
2021/01/12 06:40:10;;;;;;;;;;;;;;;-1.49;74.37;100598.54;1757689;81;21189;-72
2021/01/12 06:42:38;;;;;;;42.70;19.40;;;;;;;-1.52;74.80;100600.65;1755616;81;20255;-73
2021/01/12 06:45:07;;;;;;;42.80;19.07;;;;;;;-1.54;74.95;100591.99;1768303;80;21151;-74
2021/01/12 06:47:36;;;;;;;38.67;17.00;;;;;;;-1.54;75.28;100591.99;1783940;80;21200;-75
2021/01/12 06:50:12;;;;;;;41.75;18.35;;;;;;;-1.58;75.18;100591.48;1779637;80;21318;-74
2021/01/12 06:52:48;;;;;;;44.10;20.12;;;;;;;-1.57;75.47;100595.78;1752827;80;21642;-72
2021/01/12 06:55:20;;;;;;;42.25;21.02;;;;;;;-1.57;75.93;100585.45;1752974;80;21114;-73
2021/01/12 06:57:50;;;;;;;46.83;22.02;;;;;;;-1.54;76.07;100590.70;1757153;80;21170;-74
2021/01/12 07:00:19;;;;;;;41.70;17.48;;;;;;;-1.51;76.02;100584.72;1767464;80;21174;-75
2021/01/12 07:02:57;;;;;;;35.15;15.15;;;;;;;-1.54;75.65;100589.41;1783738;80;21428;-75
2021/01/12 07:05:42;;;;;;;42.98;18.77;;;;;;;-1.52;75.88;100585.55;1780864;80;21192;-75
2021/01/12 07:08:11;;;;;;;40.23;15.50;;;;;;;-1.52;76.02;100585.15;1773393;80;21145;-75
2021/01/12 07:10:46;;;;;;;39.35;18.17;;;;;;;-1.53;75.58;100580.80;1762900;80;21162;-74
2021/01/12 07:13:15;;;;;;;55.40;21.82;;;;;;;-1.51;76.20;100579.13;1753325;80;21190;-73
2021/01/12 07:15:48;;;;;;;42.80;18.57;;;;;;;-1.49;76.29;100582.61;1719604;83;22335;-74
2021/01/12 07:18:23;;;;;;;42.93;18.77;;;;;;;-1.46;76.23;100589.55;1710602;82;21206;-77
2021/01/12 07:20:51;;;;;;;42.65;19.90;;;;;;;-1.46;75.95;100585.67;1725867;81;21185;-78
2021/01/12 07:23:20;;;;;;;43.33;21.42;;;;;;;-1.47;75.90;100582.66;1730851;82;21138;-78
2021/01/12 07:25:48;;;;;;;47.20;22.42;;;;;;;-1.48;76.32;100583.48;1676654;80;21679;-78
2021/01/12 07:28:22;;;;;;;42.78;18.92;;;;;;;-1.48;76.51;100576.59;1725548;82;21403;-78
2021/01/12 07:30:51;;;;;;;52.33;21.85;;;;;;;-1.46;76.91;100576.63;1722672;82;21205;-78
2021/01/12 07:33:24;;;;;;;60.03;25.68;;;;;;;-1.44;77.26;100580.55;1734622;82;21197;-78
2021/01/12 07:35:56;;;;;;;51.95;22.82;;;;;;;-1.43;77.54;100578.40;1724733;83;22159;-76
2021/01/12 07:38:26;;;;;;;46.40;21.30;;;;;;;-1.44;77.49;100581.41;1724779;83;21200;-77
2021/01/12 07:40:57;;;;;;;41.40;21.12;;;;;;;-1.42;77.61;100580.16;1711797;81;21408;-79
2021/01/12 07:43:25;;;;;;;48.35;22.48;;;;;;;-1.43;77.57;100571.94;1731425;82;21189;-78
2021/01/12 07:45:54;;;;;;;43.38;19.35;;;;;;;-1.41;78.23;100572.41;1726388;82;21176;-79
2021/01/12 07:48:22;;;;;;;50.60;23.35;;;;;;;-1.42;77.86;100571.11;1729887;81;21218;-78
2021/01/12 07:50:51;;;;;;;48.80;21.48;;;;;;;-1.40;77.61;100571.59;1778455;80;21613;-80
2021/01/12 07:53:19;;;;;;;46.55;19.07;;;;;;;-1.40;77.46;100566.42;1780127;79;21367;-78
2021/01/12 07:55:48;;;;;;;36.10;12.33;;;;;;;-1.42;77.56;100565.95;1766414;80;21118;-79
2021/01/12 07:58:17;;;;;;;45.83;18.75;;;;;;;-1.46;77.34;100574.05;1724883;82;21189;-78
2021/01/12 08:00:48;;;;;;;48.52;23.25;;;;;;;-1.48;77.13;100571.42;1744904;80;21222;-79
2021/01/12 08:03:26;;;;;;;48.48;22.40;;;;;;;-1.45;77.23;100571.03;1729180;80;21165;-78
2021/01/12 08:06:00;;;;;;;48.13;22.15;;;;;;;-1.42;77.47;100564.66;1728756;82;21165;-77
2021/01/12 08:08:31;;;;;;;50.10;23.38;;;;;;;-1.37;77.38;100568.19;1746022;80;21477;-79
2021/01/12 08:11:00;;;;;;;47.65;22.52;;;;;;;-1.34;77.20;100565.22;1755995;80;21234;-79
2021/01/12 08:13:30;;;;;;;37.05;15.25;;;;;;;-1.32;77.36;100566.55;1751355;80;21144;-76
2021/01/12 08:15:58;;;;;;;38.13;18.30;;;;;;;-1.38;76.62;100561.26;1738884;81;21169;-79
2021/01/12 08:18:26;;;;;;;36.38;17.30;;;;;;;-1.39;76.39;100562.12;1725147;80;21751;-77
2021/01/12 08:20:55;;;;;;;39.48;18.12;;;;;;;-1.44;76.12;100565.05;1677227;83;21231;-75
2021/01/12 08:23:23;;;;;;;41.80;21.00;;;;;;;-1.46;76.15;100565.43;1732639;81;21194;-74
2021/01/12 08:25:51;;;;;;;41.70;19.35;;;;;;;-1.49;76.09;100567.11;1717083;83;21223;-74
2021/01/12 08:28:19;;;;;;;42.27;18.27;;;;;;;-1.50;76.37;100565.35;1724283;82;21095;-75
2021/01/12 08:30:47;;;;;;;48.73;22.67;;;;;;;-1.51;76.54;100568.80;1720459;82;21401;-75
2021/01/12 08:33:27;;;;;;;42.78;19.42;;;;;;;-1.50;76.79;100569.23;1742303;81;21686;-74
2021/01/12 08:36:16;;;;;;;39.25;18.75;;;;;;;-1.50;76.85;100561.48;1723026;82;21196;-72
2021/01/12 08:41:23;;;;;;;47.13;20.50;;;;;;;-1.41;76.83;100566.38;1792213;77;23368;-74
2021/01/12 08:43:55;;;;;;;35.23;15.78;;;;;;;-1.46;76.02;100560.27;1776952;80;21119;-74
2021/01/12 08:46:30;;;;;;;42.53;19.23;;;;;;;-1.49;75.72;100566.25;1741932;80;22121;-74
2021/01/12 08:48:58;;;;;;;48.78;19.27;;;;;;;-1.47;76.11;100560.70;1770355;80;21183;-75
2021/01/12 08:51:28;;;;;;;37.20;17.45;;;;;;;-1.46;75.19;100555.09;1775613;80;21213;-74
2021/01/12 08:53:55;;;;;;;34.05;14.43;;;;;;;-1.48;74.33;100555.92;1743855;80;21683;-74
2021/01/12 08:56:23;;;;;;;45.40;18.17;;;;;;;-1.53;73.80;100549.81;1770465;80;21441;-74
2021/01/12 08:59:04;;;;;;;35.78;16.55;;;;;;;-1.52;74.30;100542.53;1708400;83;21208;-74
2021/01/12 09:01:32;;;;;;;38.30;18.25;;;;;;;-1.52;74.27;100548.98;1716027;82;21180;-74
2021/01/12 09:04:06;;;;;;;41.63;15.45;;;;;;;-1.52;73.75;100546.41;1771878;80;21134;-75
2021/01/12 09:06:35;;;;;;;45.15;18.67;;;;;;;-1.55;73.93;100541.16;1777616;80;21151;-76
2021/01/12 09:09:07;;;;;;;45.70;20.60;;;;;;;-1.53;74.86;100541.20;1775935;80;21278;-74
2021/01/12 09:11:47;;;;;;;48.35;19.95;;;;;;;-1.49;75.04;100543.86;1775580;80;22328;-77
2021/01/12 09:14:19;;;;;;;50.17;18.30;;;;;;;-1.46;74.37;100529.27;1773483;80;21211;-77
2021/01/12 09:16:58;;;;;;;28.85;13.90;;;;;;;-1.49;74.79;100530.95;1772247;80;21183;-75
2021/01/12 09:19:38;;;;;;;45.33;14.95;;;;;;;-1.50;74.29;100528.33;1748222;80;21220;-76
2021/01/12 09:22:18;;;;;;;61.00;24.80;;;;;;;-1.52;74.53;100529.61;1768715;80;21181;-75
2021/01/12 09:24:51;;;;;;;48.68;21.75;;;;;;;-1.49;74.46;100525.78;1773568;79;22370;-76
2021/01/12 09:27:24;;;;;;;54.75;22.37;;;;;;;-1.48;74.63;100531.38;1769512;80;21182;-77
2021/01/12 09:29:52;;;;;;;52.83;20.45;;;;;;;-1.51;74.58;100526.59;1755884;80;21191;-75
2021/01/12 09:32:38;;;;;;;52.23;21.33;;;;;;;-1.54;74.54;100531.69;1707712;83;21635;-76
2021/01/12 09:35:07;;;;;;;57.45;22.22;;;;;;;-1.54;74.59;100519.67;1728081;82;21182;-76
2021/01/12 09:37:34;;;;;;;52.30;20.77;;;;;;;-1.55;74.98;100518.34;1720919;82;21413;-75
2021/01/12 09:40:03;;;;;;;57.50;21.25;;;;;;;-1.55;74.74;100507.58;1723820;82;21207;-78
2021/01/12 09:42:30;;;;;;;53.78;21.73;;;;;;;-1.52;74.19;100517.98;1709657;82;21135;-75
2021/01/12 09:45:01;;;;;;;52.38;21.42;;;;;;;-1.48;73.68;100507.27;1750798;80;21205;-75
2021/01/12 09:47:33;;;;;;;52.43;19.73;;;;;;;-1.50;73.12;100499.48;1765323;80;21112;-76
2021/01/12 09:50:06;;;;;;;43.63;18.75;;;;;;;-1.45;72.80;100493.11;1744477;80;21386;-76
2021/01/12 09:52:34;;;;;;;37.93;15.13;;;;;;;-1.45;72.47;100476.74;1748134;80;21190;-76
2021/01/12 09:55:04;;;;;;;35.08;15.88;;;;;;;-1.46;72.07;100477.60;1764882;80;21130;-76
2021/01/12 09:57:36;;;;;;;37.17;17.85;;;;;;;-1.43;72.37;100475.06;1748805;79;21162;-75
2021/01/12 10:00:07;;;;;;;42.43;18.20;;;;;;;-1.42;72.53;100474.23;1752462;80;21139;-75
2021/01/12 10:02:36;;;;;;;39.18;19.27;;;;;;;-1.40;72.46;100461.78;1689305;83;22305;-76
2021/01/12 10:05:05;;;;;;;42.45;19.77;;;;;;;-1.32;72.64;100461.91;1714476;81;21169;-76
2021/01/12 10:07:34;;;;;;;28.55;14.43;;;;;;;-1.28;72.39;100461.11;1701050;83;21173;-74
2021/01/12 10:10:03;;;;;;;37.10;17.32;;;;;;;-1.25;71.77;100449.52;1748989;80;21139;-78
2021/01/12 10:12:31;;;;;;;38.80;17.35;;;;;;;-1.24;72.13;100451.28;1707274;83;21140;-75
2021/01/12 10:14:58;;;;;;;39.45;16.40;;;;;;;-1.21;70.95;100434.95;1654455;82;21388;-75
2021/01/12 10:17:27;;;;;;;43.58;19.90;;;;;;;-1.21;71.13;100437.11;1722438;82;21223;-76
2021/01/12 10:19:54;;;;;;;43.48;18.77;;;;;;;-1.14;71.10;100429.89;1723665;81;21306;-78
2021/01/12 10:24:28;;;;;;;43.27;18.47;;;;;;;-1.06;69.72;100416.67;1771938;79;22672;-76
2021/01/12 10:26:57;;;;;;;43.08;18.20;;;;;;;-1.12;69.62;100407.95;1720217;82;21171;-75
2021/01/12 10:29:26;;;;;;;31.45;12.30;;;;;;;-1.09;69.39;100412.73;1723317;82;22252;-76
2021/01/12 10:31:55;;;;;;;47.58;20.17;;;;;;;-1.11;69.23;100404.08;1733102;82;21216;-76
2021/01/12 10:34:24;;;;;;;41.65;17.05;;;;;;;-1.09;69.25;100401.53;1732724;82;21177;-75
2021/01/12 10:36:53;;;;;;;35.43;15.63;;;;;;;-1.11;69.03;100398.05;1708898;81;21209;-74
2021/01/12 10:39:21;;;;;;;27.85;12.23;;;;;;;-1.17;68.77;100404.02;1714714;82;21195;-76
2021/01/12 10:41:50;;;;;;;40.50;17.25;;;;;;;-1.22;68.88;100394.03;1712077;81;21374;-75
2021/01/12 10:44:18;;;;;;;36.30;17.55;;;;;;;-1.25;69.23;100383.63;1717829;83;22293;-76
2021/01/12 10:46:47;;;;;;;29.65;14.03;;;;;;;-1.23;68.96;100375.48;1682955;84;21138;-76
2021/01/12 10:49:15;;;;;;;35.80;17.07;;;;;;;-1.20;69.02;100367.77;1643887;86;21189;-73
2021/01/12 10:51:43;;;;;;;33.55;12.95;;;;;;;-1.17;68.78;100370.84;1658436;85;21210;-75
2021/01/12 10:54:10;;;;;;;33.42;15.75;;;;;;;-1.16;68.25;100372.14;1653970;84;21211;-78
2021/01/12 10:56:38;;;;;;;31.20;15.85;;;;;;;-1.18;68.75;100359.61;1649416;86;21213;-72
2021/01/12 10:59:06;;;;;;;24.12;11.08;;;;;;;-1.16;68.79;100355.34;1671217;85;21150;-74
2021/01/12 11:01:35;;;;;;;30.75;14.95;;;;;;;-1.18;68.26;100350.56;1703991;83;21494;-73
2021/01/12 11:04:04;;;;;;;35.60;16.50;;;;;;;-1.27;68.38;100350.44;1701766;83;21215;-73
2021/01/12 11:06:36;;;;;;;35.78;15.93;;;;;;;-1.23;68.84;100350.94;1702028;82;21386;-73
2021/01/12 11:09:04;;;;;;;35.85;15.40;;;;;;;-1.19;68.26;100351.43;1705340;82;21227;-75
2021/01/12 11:11:36;;;;;;;34.55;14.80;;;;;;;-1.22;67.71;100350.50;1709074;83;21217;-73
2021/01/12 11:14:06;;;;;;;30.30;14.18;;;;;;;-1.24;67.49;100358.25;1694750;81;31982;-73
2021/01/12 11:16:41;;;;;;;30.68;14.95;;;;;;;-1.22;67.58;100344.04;1655149;85;21171;-73
2021/01/12 11:19:09;;;;;;;36.25;15.08;;;;;;;-1.21;67.68;100356.99;1646667;85;21386;-75
2021/01/12 11:21:45;;;;;;;28.20;12.65;;;;;;;-1.24;67.83;100353.09;1663256;85;21553;-73
2021/01/12 11:24:19;;;;;;;34.38;14.20;;;;;;;-1.31;67.65;100354.70;1620213;86;21611;-73
2021/01/12 11:26:47;;;;;;;31.37;14.33;;;;;;;-1.28;67.64;100338.37;1642318;85;21626;-72
2021/01/12 11:29:16;;;;;;;30.90;11.78;;;;;;;-1.26;67.83;100348.31;1649103;85;21461;-72
2021/01/12 11:31:47;;;;;;;32.38;15.03;;;;;;;-1.29;68.04;100349.54;1638810;85;22664;-75
2021/01/12 11:34:16;;;;;;;34.58;16.42;;;;;;;-1.27;68.00;100349.14;1630483;85;21238;-76
2021/01/12 11:36:47;;;;;;;33.88;14.40;;;;;;;-1.22;68.76;100349.20;1644614;85;21586;-74
2021/01/12 11:39:16;;;;;;;38.28;15.93;;;;;;;-1.22;68.42;100344.04;1644457;85;21229;-73
2021/01/12 11:41:54;;;;;;;34.53;15.48;;;;;;;-1.18;68.40;100354.88;1633312;86;21221;-74
2021/01/12 11:44:24;;;;;;;33.33;15.20;;;;;;;-1.17;68.30;100342.41;1656868;85;21852;-74
2021/01/12 11:46:51;;;;;;;33.33;13.58;;;;;;;-1.20;68.24;100328.14;1667621;85;21245;-75